Time;durP1;ratioP1;P1;durP2;ratioP2;P2;SDS_P1;SDS_P2;PMS_P1;PMS_P2;Temp;Humidity;BMP_temperature;BMP_pressure;BME280_temperature;BME280_humidity;BME280_pressure;Samples;Min_cycle;Max_cycle;Signal;HPM_P1;HPM_P2
2022/05/31 00:01:54;;;;;;;1.33;1.10;;;9.50;99.90;;;;;;5093978;28;20490;-46
2022/05/31 00:04:21;;;;;;;1.60;1.50;;;9.40;99.90;;;;;;5093890;28;20530;-46
2022/05/31 00:06:48;;;;;;;1.60;1.43;;;9.40;99.90;;;;;;5093868;28;20440;-46
2022/05/31 00:09:15;;;;;;;1.60;1.40;;;9.50;99.90;;;;;;5093865;28;20854;-45
2022/05/31 00:11:42;;;;;;;1.20;1.10;;;9.50;99.90;;;;;;5094304;28;20471;-46
2022/05/31 00:14:10;;;;;;;2.27;1.80;;;9.50;99.90;;;;;;5093941;28;20478;-45
2022/05/31 00:16:38;;;;;;;2.13;1.93;;;9.50;99.90;;;;;;5093592;28;20475;-45
2022/05/31 00:19:06;;;;;;;2.30;1.40;;;9.50;99.90;;;;;;5106934;22;20478;-43
2022/05/31 00:21:40;;;;;;;1.23;1.13;;;9.50;99.90;;;;;;5073175;28;20532;-42
2022/05/31 00:24:11;;;;;;;1.40;1.30;;;9.50;99.90;;;;;;5073759;28;20498;-43
2022/05/31 00:26:39;;;;;;;1.37;1.27;;;9.40;99.90;;;;;;5073652;28;20486;-44
2022/05/31 00:29:06;;;;;;;1.20;1.10;;;9.40;99.90;;;;;;5077409;28;20491;-45
2022/05/31 00:31:33;;;;;;;1.80;1.27;;;9.40;99.90;;;;;;5093420;28;20526;-44
2022/05/31 00:34:02;;;;;;;1.27;1.17;;;9.30;99.90;;;;;;5093554;28;20486;-44
2022/05/31 00:36:29;;;;;;;2.93;1.40;;;9.30;99.90;;;;;;5093257;28;20464;-48
2022/05/31 00:38:56;;;;;;;1.50;1.40;;;9.30;99.90;;;;;;5093165;28;20458;-43
2022/05/31 00:41:24;;;;;;;1.87;1.60;;;9.30;99.90;;;;;;5093195;28;20505;-44
2022/05/31 00:43:52;;;;;;;1.70;1.60;;;9.30;99.90;;;;;;5093065;28;20504;-43
2022/05/31 00:46:21;;;;;;;1.57;1.47;;;9.30;99.90;;;;;;5093428;28;20474;-43
2022/05/31 00:48:51;;;;;;;1.70;1.13;;;9.30;99.90;;;;;;5092569;28;20475;-43
2022/05/31 00:51:20;;;;;;;1.27;1.10;;;9.40;99.90;;;;;;5093152;28;20478;-44
2022/05/31 00:53:51;;;;;;;1.90;1.23;;;9.40;99.90;;;;;;5092867;28;20440;-43
2022/05/31 00:56:21;;;;;;;1.93;1.40;;;9.40;99.90;;;;;;5092765;28;20484;-43
2022/05/31 00:58:53;;;;;;;1.60;1.20;;;9.40;99.90;;;;;;5093184;28;20440;-43
2022/05/31 01:01:20;;;;;;;4.50;1.33;;;9.50;99.90;;;;;;5092990;28;20991;-43
2022/05/31 01:03:48;;;;;;;1.83;1.70;;;9.50;99.90;;;;;;5092984;28;20482;-44
2022/05/31 01:06:16;;;;;;;1.03;0.90;;;9.50;99.90;;;;;;5093135;28;20527;-44
2022/05/31 01:08:46;;;;;;;2.67;1.57;;;9.50;99.90;;;;;;5091750;28;20555;-44
2022/05/31 01:11:15;;;;;;;1.43;1.33;;;9.50;99.90;;;;;;5092764;28;20791;-48
2022/05/31 01:13:43;;;;;;;1.67;1.27;;;9.40;99.90;;;;;;5092786;28;20485;-43
2022/05/31 01:16:13;;;;;;;1.40;1.27;;;9.40;99.90;;;;;;5092594;28;20479;-44
2022/05/31 01:18:40;;;;;;;1.53;1.30;;;9.40;99.90;;;;;;5092471;28;20468;-46
2022/05/31 01:21:09;;;;;;;2.00;1.40;;;9.40;99.90;;;;;;5092545;28;20512;-43
2022/05/31 01:23:42;;;;;;;1.90;1.30;;;9.50;99.90;;;;;;5092290;28;20463;-48
2022/05/31 01:26:17;;;;;;;3.63;1.70;;;9.50;99.90;;;;;;5092400;28;20810;-43
2022/05/31 01:28:54;;;;;;;1.43;1.33;;;9.40;99.90;;;;;;5092285;28;20520;-44
2022/05/31 01:31:26;;;;;;;1.70;1.40;;;9.40;99.90;;;;;;5092387;28;20439;-43
2022/05/31 01:34:01;;;;;;;1.53;1.37;;;9.30;99.90;;;;;;5091990;28;20515;-44
2022/05/31 01:36:35;;;;;;;3.70;1.80;;;9.30;99.90;;;;;;5092183;28;20486;-42
2022/05/31 01:39:04;;;;;;;2.03;1.50;;;9.20;99.90;;;;;;5091980;28;20490;-44
2022/05/31 01:41:37;;;;;;;1.60;1.50;;;9.20;99.90;;;;;;5092012;28;20450;-44
2022/05/31 01:44:08;;;;;;;2.57;1.30;;;9.20;99.90;;;;;;5092446;28;20436;-43
2022/05/31 01:46:36;;;;;;;1.90;1.80;;;9.30;99.90;;;;;;5092343;28;20468;-44
2022/05/31 01:49:06;;;;;;;2.30;1.83;;;9.40;99.90;;;;;;5091583;28;20485;-43
2022/05/31 01:51:35;;;;;;;1.77;1.63;;;9.30;99.90;;;;;;5092035;28;20447;-46
2022/05/31 01:54:02;;;;;;;1.70;1.30;;;9.40;99.90;;;;;;5091673;28;20501;-44
2022/05/31 01:56:31;;;;;;;2.17;1.37;;;9.40;99.90;;;;;;5091928;28;20478;-44
2022/05/31 01:58:59;;;;;;;2.07;1.60;;;9.40;99.90;;;;;;5091691;28;20463;-48
2022/05/31 02:01:28;;;;;;;1.40;1.30;;;9.40;99.90;;;;;;5091835;28;20447;-44
2022/05/31 02:03:55;;;;;;;2.03;1.23;;;9.40;99.90;;;;;;5091939;28;20451;-44
2022/05/31 02:06:31;;;;;;;2.20;1.50;;;9.40;99.90;;;;;;5091813;28;20537;-43
2022/05/31 02:08:59;;;;;;;1.70;1.43;;;9.50;99.90;;;;;;5091168;28;20506;-44
2022/05/31 02:11:26;;;;;;;2.50;1.43;;;9.50;99.90;;;;;;5091595;28;20444;-44
2022/05/31 02:13:53;;;;;;;2.83;1.50;;;9.50;99.90;;;;;;5091755;28;20444;-43
2022/05/31 02:16:21;;;;;;;1.43;1.20;;;9.50;99.90;;;;;;5091603;28;20469;-44
2022/05/31 02:21:36;;;;;;;1.53;1.20;;;9.50;99.90;;;;;;5091791;28;20552;-44
2022/05/31 02:24:07;;;;;;;1.80;1.20;;;9.40;99.90;;;;;;5091769;28;20833;-43
2022/05/31 02:26:34;;;;;;;1.70;1.60;;;9.40;99.90;;;;;;5091664;28;20447;-48
2022/05/31 02:29:01;;;;;;;2.80;1.50;;;9.50;99.90;;;;;;5091411;28;20828;-43
2022/05/31 02:31:29;;;;;;;1.40;1.20;;;9.50;99.90;;;;;;5091398;28;20800;-46
2022/05/31 02:33:56;;;;;;;1.50;1.40;;;9.50;99.90;;;;;;5091350;28;20505;-43
2022/05/31 02:36:23;;;;;;;1.73;1.13;;;9.50;99.90;;;;;;5091682;28;20522;-45
2022/05/31 02:38:50;;;;;;;1.60;1.47;;;9.30;99.90;;;;;;5091126;28;20475;-48
2022/05/31 02:41:19;;;;;;;1.93;1.57;;;9.30;99.90;;;;;;5091235;28;20443;-44
2022/05/31 02:43:46;;;;;;;2.83;2.00;;;9.10;99.90;;;;;;5091287;28;20439;-43
2022/05/31 02:46:13;;;;;;;2.27;1.53;;;9.20;99.90;;;;;;5091557;28;20435;-48
2022/05/31 02:48:40;;;;;;;1.40;1.30;;;9.20;99.90;;;;;;5091040;28;20544;-41
2022/05/31 02:51:07;;;;;;;1.87;1.50;;;9.30;99.90;;;;;;5091518;28;20474;-48
2022/05/31 02:53:34;;;;;;;1.97;1.10;;;9.30;99.90;;;;;;5091529;28;20443;-43
2022/05/31 02:56:01;;;;;;;1.67;1.23;;;9.30;99.90;;;;;;5091085;28;20874;-43
2022/05/31 02:58:29;;;;;;;1.50;1.40;;;9.40;99.90;;;;;;5091042;28;20471;-44
2022/05/31 03:00:56;;;;;;;1.40;1.30;;;9.40;99.90;;;;;;5091319;28;20498;-44
2022/05/31 03:03:23;;;;;;;2.83;1.60;;;9.40;99.90;;;;;;5091199;28;20444;-45
2022/05/31 03:05:51;;;;;;;1.70;1.60;;;9.50;99.90;;;;;;5091174;28;20471;-44
2022/05/31 03:08:18;;;;;;;1.47;1.37;;;9.50;99.90;;;;;;5091427;28;20471;-48
2022/05/31 03:10:53;;;;;;;2.23;1.70;;;9.50;99.90;;;;;;5090834;28;20499;-46
2022/05/31 03:13:24;;;;;;;1.67;1.33;;;9.50;99.90;;;;;;5091279;28;20471;-44
2022/05/31 03:15:56;;;;;;;1.63;1.53;;;9.50;99.90;;;;;;5091261;28;20534;-44
2022/05/31 03:18:27;;;;;;;2.07;1.50;;;9.50;99.90;;;;;;5090923;28;20532;-44
2022/05/31 03:20:57;;;;;;;1.40;1.30;;;9.50;99.90;;;;;;5090688;28;20558;-44
2022/05/31 03:23:29;;;;;;;5.43;1.50;;;9.50;99.90;;;;;;5090900;28;20971;-43
2022/05/31 03:26:00;;;;;;;3.27;1.57;;;9.50;99.90;;;;;;5091204;28;20520;-44
2022/05/31 03:28:28;;;;;;;1.77;1.67;;;9.50;99.90;;;;;;5091202;28;20564;-45
2022/05/31 03:30:56;;;;;;;3.50;1.67;;;9.50;99.90;;;;;;5090517;28;20960;-43
2022/05/31 03:33:23;;;;;;;2.00;1.50;;;9.50;99.90;;;;;;5093883;28;20519;-43
2022/05/31 03:35:50;;;;;;;1.50;1.40;;;9.40;99.90;;;;;;5094319;28;20463;-44
2022/05/31 03:38:17;;;;;;;1.73;1.63;;;9.40;99.90;;;;;;5094532;28;20436;-43
2022/05/31 03:41:00;;;;;;;1.63;1.50;;;9.40;99.90;;;;;;5093923;28;20487;-48
2022/05/31 03:43:29;;;;;;;1.93;1.47;;;9.40;99.90;;;;;;5094681;28;20451;-45
2022/05/31 03:45:58;;;;;;;1.40;1.17;;;9.40;99.90;;;;;;5094167;28;20520;-43
2022/05/31 03:48:27;;;;;;;1.60;1.43;;;9.40;99.90;;;;;;5094284;28;20911;-46
2022/05/31 03:51:01;;;;;;;2.53;1.73;;;9.40;99.90;;;;;;5094054;28;20552;-44
2022/05/31 03:53:28;;;;;;;2.27;1.37;;;9.40;99.90;;;;;;5094107;28;20538;-44
2022/05/31 03:55:56;;;;;;;1.73;1.60;;;9.40;99.90;;;;;;5094252;28;20489;-45
2022/05/31 03:58:23;;;;;;;1.43;1.33;;;9.40;99.90;;;;;;5094103;28;20864;-43
2022/05/31 04:00:50;;;;;;;1.33;1.17;;;9.40;99.90;;;;;;5093989;28;20546;-43
2022/05/31 04:03:19;;;;;;;2.07;1.70;;;9.40;99.90;;;;;;5094004;28;20475;-48
2022/05/31 04:05:46;;;;;;;3.37;1.80;;;9.30;99.90;;;;;;5093801;28;20956;-44
2022/05/31 04:08:13;;;;;;;2.93;1.77;;;9.30;99.90;;;;;;5093871;28;20486;-44
2022/05/31 04:10:42;;;;;;;2.87;1.90;;;9.30;99.90;;;;;;5093622;28;20546;-44
2022/05/31 04:13:09;;;;;;;1.63;1.53;;;9.30;99.90;;;;;;5093812;28;20487;-44
2022/05/31 04:15:37;;;;;;;1.73;1.20;;;9.40;99.90;;;;;;5094154;28;20439;-47
2022/05/31 04:18:05;;;;;;;2.47;1.77;;;9.40;99.90;;;;;;5093667;28;21000;-44
2022/05/31 04:20:34;;;;;;;3.80;1.73;;;9.20;99.90;;;;;;5093389;28;20480;-43
2022/05/31 04:25:46;;;;;;;2.17;1.83;;;9.10;99.90;;;;;;5093867;28;20930;-43
2022/05/31 04:28:14;;;;;;;2.13;1.93;;;9.20;99.90;;;;;;5094004;28;20626;-44
2022/05/31 04:30:44;;;;;;;4.53;1.80;;;9.30;99.90;;;;;;5093332;28;20467;-43
2022/05/31 04:33:12;;;;;;;2.00;1.73;;;9.20;99.90;;;;;;5093674;28;20446;-48
2022/05/31 04:35:40;;;;;;;1.63;1.53;;;9.20;99.90;;;;;;5093819;28;20484;-44
2022/05/31 04:38:07;;;;;;;2.97;2.30;;;9.30;99.90;;;;;;5093358;28;20431;-43
2022/05/31 04:40:37;;;;;;;2.40;2.20;;;9.40;99.90;;;;;;5092783;28;20487;-48
2022/05/31 04:43:05;;;;;;;1.77;1.63;;;9.50;99.90;;;;;;5093094;28;20485;-44
2022/05/31 04:45:32;;;;;;;2.73;2.00;;;9.60;99.90;;;;;;5092536;28;20454;-45
2022/05/31 04:47:59;;;;;;;2.07;1.97;;;9.60;99.90;;;;;;5093173;28;20530;-43
2022/05/31 04:50:26;;;;;;;4.50;2.13;;;9.70;99.90;;;;;;5092506;28;21026;-43
2022/05/31 04:52:54;;;;;;;2.63;2.43;;;9.70;99.90;;;;;;5092876;28;20857;-44
2022/05/31 04:55:21;;;;;;;2.73;1.90;;;9.70;99.90;;;;;;5093626;28;21000;-43
2022/05/31 04:57:48;;;;;;;2.37;2.17;;;9.80;99.90;;;;;;5093081;28;20478;-43
2022/05/31 05:00:16;;;;;;;2.50;2.30;;;9.80;99.90;;;;;;5092556;28;20553;-48
2022/05/31 05:02:43;;;;;;;4.20;2.10;;;9.80;99.90;;;;;;5092701;28;20443;-44
2022/05/31 05:05:10;;;;;;;2.60;1.80;;;9.80;99.90;;;;;;5093053;28;20459;-44
2022/05/31 05:07:37;;;;;;;1.97;1.77;;;9.80;99.90;;;;;;5093049;28;20443;-44
2022/05/31 05:10:08;;;;;;;1.53;1.43;;;9.80;99.90;;;;;;5092402;28;20513;-46
2022/05/31 05:12:35;;;;;;;2.50;1.50;;;9.80;99.90;;;;;;5092625;28;20565;-43
2022/05/31 05:15:02;;;;;;;1.70;1.60;;;9.80;99.90;;;;;;5092583;28;20474;-44
2022/05/31 05:17:29;;;;;;;1.57;1.47;;;9.80;99.90;;;;;;5092446;28;20883;-43
2022/05/31 05:19:56;;;;;;;1.50;1.40;;;9.80;99.90;;;;;;5091993;28;20556;-46
2022/05/31 05:22:23;;;;;;;3.23;1.47;;;9.90;99.90;;;;;;5092491;28;21008;-43
2022/05/31 05:24:50;;;;;;;2.47;1.87;;;9.90;99.90;;;;;;5092491;28;20482;-48
2022/05/31 05:27:19;;;;;;;2.10;1.87;;;9.70;99.90;;;;;;5092481;28;20823;-43
2022/05/31 05:32:26;;;;;;;1.60;1.50;;;9.60;99.90;;;;;;5058368;28;20431;-44
2022/05/31 05:34:54;;;;;;;2.33;1.70;;;9.50;99.90;;;;;;5092400;28;20474;-45
2022/05/31 05:37:21;;;;;;;1.67;1.57;;;9.40;99.90;;;;;;5092391;28;20447;-44
2022/05/31 05:39:48;;;;;;;2.20;1.70;;;9.30;99.90;;;;;;5091797;28;20508;-45
2022/05/31 05:42:15;;;;;;;2.13;1.93;;;9.40;99.90;;;;;;5092350;28;20439;-44
2022/05/31 05:44:44;;;;;;;3.17;1.70;;;9.40;99.90;;;;;;5092271;28;20989;-44
2022/05/31 05:47:14;;;;;;;7.10;2.10;;;9.50;99.90;;;;;;5092156;28;20446;-44
2022/05/31 05:49:41;;;;;;;1.90;1.80;;;9.60;99.90;;;;;;5091620;28;20483;-44
2022/05/31 05:52:12;;;;;;;2.50;2.30;;;9.70;99.90;;;;;;5092107;28;20474;-46
2022/05/31 05:54:39;;;;;;;1.80;1.50;;;9.80;99.90;;;;;;5092139;28;20805;-43
2022/05/31 05:57:06;;;;;;;2.07;1.47;;;9.90;99.90;;;;;;5091946;28;20444;-43
2022/05/31 05:59:33;;;;;;;2.07;1.77;;;10.00;99.90;;;;;;5091790;28;20458;-44
2022/05/31 06:02:09;;;;;;;3.90;1.87;;;10.00;99.90;;;;;;5091927;28;20438;-43
2022/05/31 06:04:39;;;;;;;1.90;1.70;;;10.50;99.90;;;;;;5091833;28;20507;-43
2022/05/31 06:07:14;;;;;;;1.67;1.57;;;11.40;99.90;;;;;;5091846;28;20482;-44
2022/05/31 06:09:44;;;;;;;2.47;1.30;;;12.40;99.90;;;;;;5091433;28;20478;-43
2022/05/31 06:12:17;;;;;;;2.00;1.53;;;13.10;99.90;;;;;;5091877;28;20444;-43
2022/05/31 06:14:47;;;;;;;1.60;1.30;;;13.50;99.90;;;;;;5091865;28;20496;-48
2022/05/31 06:17:19;;;;;;;1.90;1.57;;;14.30;99.90;;;;;;5091790;28;20436;-46
2022/05/31 06:19:49;;;;;;;2.50;1.30;;;14.50;99.90;;;;;;5149034;22;20518;-48
2022/05/31 06:22:17;;;;;;;2.27;1.63;;;14.20;99.90;;;;;;5091781;28;20493;-43
2022/05/31 06:24:44;;;;;;;1.40;1.30;;;14.20;99.90;;;;;;5091905;28;20508;-44
2022/05/31 06:27:11;;;;;;;2.00;1.10;;;14.00;99.90;;;;;;5091705;28;20435;-44
2022/05/31 06:29:38;;;;;;;1.87;1.10;;;13.90;99.90;;;;;;5091345;28;20552;-43
2022/05/31 06:32:06;;;;;;;1.40;1.30;;;13.90;99.90;;;;;;5091662;28;20440;-44
2022/05/31 06:34:36;;;;;;;3.43;1.47;;;13.60;99.90;;;;;;5091682;28;20475;-43
2022/05/31 06:37:05;;;;;;;2.10;1.40;;;13.40;99.90;;;;;;5091794;28;20526;-44
2022/05/31 06:39:35;;;;;;;1.43;1.30;;;13.20;99.90;;;;;;5090524;28;20459;-44
2022/05/31 06:42:03;;;;;;;1.60;1.50;;;13.00;99.90;;;;;;5091692;28;20477;-44
2022/05/31 06:44:32;;;;;;;2.23;2.03;;;13.00;99.90;;;;;;5091519;28;20440;-46
2022/05/31 06:46:59;;;;;;;2.53;1.80;;;12.90;99.90;;;;;;5091635;28;20832;-43
2022/05/31 06:49:26;;;;;;;2.40;1.83;;;12.80;99.90;;;;;;5091044;28;20562;-46
2022/05/31 06:57:23;;;;;;;1.77;1.67;;;12.30;99.90;;;;;;5107440;28;20443;-44
2022/05/31 06:59:50;;;;;;;2.03;1.83;;;12.30;99.90;;;;;;5090809;28;20980;-43
2022/05/31 07:02:17;;;;;;;1.73;1.63;;;12.30;99.90;;;;;;5091338;28;20475;-46
2022/05/31 07:04:43;;;;;;;2.80;1.90;;;12.40;99.90;;;;;;5091017;28;20496;-44
2022/05/31 07:07:12;;;;;;;2.20;2.00;;;12.60;99.90;;;;;;5093744;28;20498;-44
2022/05/31 07:09:39;;;;;;;4.33;2.20;;;12.30;99.90;;;;;;5114792;28;20557;-44
2022/05/31 07:12:06;;;;;;;1.90;1.70;;;12.20;99.90;;;;;;5115257;28;20481;-44
2022/05/31 07:14:33;;;;;;;1.87;1.70;;;12.20;99.90;;;;;;5115211;28;20472;-43
2022/05/31 07:17:00;;;;;;;2.60;1.90;;;12.10;99.90;;;;;;5115294;28;20438;-45
2022/05/31 07:19:28;;;;;;;3.03;1.77;;;12.20;99.90;;;;;;5114716;28;20458;-45
2022/05/31 07:21:59;;;;;;;2.77;2.00;;;12.50;99.90;;;;;;5115273;28;21003;-44
2022/05/31 07:24:28;;;;;;;2.57;1.93;;;12.70;99.90;;;;;;5115470;28;20545;-43
2022/05/31 07:26:54;;;;;;;2.03;1.70;;;13.00;99.90;;;;;;5115102;28;20470;-44
2022/05/31 07:29:22;;;;;;;2.10;1.30;;;13.50;99.90;;;;;;5114893;28;20906;-44
2022/05/31 07:31:48;;;;;;;1.67;1.57;;;13.70;99.90;;;;;;5115461;28;20481;-48
2022/05/31 07:34:17;;;;;;;2.80;1.50;;;14.00;99.90;;;;;;5115157;28;20469;-43
2022/05/31 07:36:44;;;;;;;1.70;1.60;;;14.50;99.90;;;;;;5115508;28;20434;-44
2022/05/31 07:39:13;;;;;;;1.20;1.10;;;15.20;99.90;;;;;;5114961;28;20495;-45
2022/05/31 07:41:41;;;;;;;2.10;1.90;;;15.50;99.90;;;;;;5114595;28;20504;-44
2022/05/31 07:44:09;;;;;;;1.53;1.27;;;15.90;99.90;;;;;;5115082;28;20439;-44
2022/05/31 07:46:36;;;;;;;2.30;1.50;;;16.20;99.90;;;;;;5115037;28;20517;-44
2022/05/31 07:49:03;;;;;;;2.63;1.57;;;16.50;99.90;;;;;;5114622;28;20446;-44
2022/05/31 07:51:30;;;;;;;2.03;1.40;;;16.60;99.90;;;;;;5114700;28;20509;-45
2022/05/31 07:53:57;;;;;;;2.60;1.90;;;16.40;99.90;;;;;;5114721;28;20476;-44
2022/05/31 07:56:24;;;;;;;2.97;2.03;;;16.20;99.90;;;;;;5114608;28;20967;-44
2022/05/31 07:58:52;;;;;;;1.73;1.50;;;16.20;99.90;;;;;;5114448;28;20477;-44
2022/05/31 08:01:24;;;;;;;3.00;1.80;;;16.20;99.90;;;;;;5114536;28;20459;-44
2022/05/31 08:03:52;;;;;;;1.63;1.20;;;16.20;99.90;;;;;;5114723;28;20508;-44
2022/05/31 08:06:21;;;;;;;1.97;1.77;;;16.30;99.90;;;;;;5114350;28;20478;-49
2022/05/31 08:08:48;;;;;;;2.33;1.70;;;15.90;99.90;;;;;;5113246;28;20481;-46
2022/05/31 08:11:18;;;;;;;2.60;2.03;;;16.00;99.90;;;;;;5112897;28;20573;-45
2022/05/31 08:13:45;;;;;;;2.17;1.57;;;16.30;99.90;;;;;;5113883;28;20477;-43
2022/05/31 08:16:16;;;;;;;3.33;1.60;;;16.10;99.90;;;;;;5114245;28;20441;-45
2022/05/31 08:18:44;;;;;;;3.37;2.17;;;16.00;99.90;;;;;;5113788;28;20927;-44
2022/05/31 08:21:13;;;;;;;1.33;1.10;;;15.80;99.90;;;;;;5114009;28;20466;-44
2022/05/31 08:23:41;;;;;;;2.07;1.40;;;16.00;99.90;;;;;;5113015;28;20474;-45
2022/05/31 08:26:08;;;;;;;1.70;1.60;;;16.30;99.90;;;;;;5112437;28;20521;-49
2022/05/31 08:28:36;;;;;;;2.63;1.60;;;16.60;99.90;;;;;;5112816;28;20438;-44
2022/05/31 08:31:06;;;;;;;2.53;2.07;;;16.70;99.90;;;;;;5113087;28;21105;-45
2022/05/31 08:33:34;;;;;;;2.93;1.80;;;16.70;99.90;;;;;;5113981;28;20506;-48
2022/05/31 08:36:02;;;;;;;1.80;1.50;;;16.60;99.90;;;;;;5113620;28;20434;-44
2022/05/31 08:38:29;;;;;;;1.53;1.40;;;16.50;99.90;;;;;;5114091;28;20503;-46
2022/05/31 08:41:08;;;;;;;3.77;1.67;;;16.80;99.90;;;;;;5113210;28;20894;-44
2022/05/31 08:43:48;;;;;;;1.77;1.67;;;16.90;99.90;;;;;;5113780;28;20771;-44
2022/05/31 08:46:22;;;;;;;2.10;1.80;;;16.90;99.90;;;;;;5113970;28;20521;-48
2022/05/31 08:48:57;;;;;;;2.57;2.37;;;16.60;99.90;;;;;;5113645;28;20474;-44
2022/05/31 08:51:52;;;;;;;1.87;1.77;;;16.60;99.90;;;;;;5113646;28;20474;-45
2022/05/31 08:57:15;;;;;;;2.10;1.90;;;16.90;99.90;;;;;;5113645;28;20418;-46
2022/05/31 08:59:50;;;;;;;1.90;1.70;;;16.80;99.90;;;;;;5113483;28;20980;-44
2022/05/31 09:02:20;;;;;;;2.37;1.93;;;16.60;99.90;;;;;;5113307;28;21017;-44
2022/05/31 09:04:57;;;;;;;1.77;1.67;;;16.50;99.90;;;;;;5113725;28;20471;-44
2022/05/31 09:07:30;;;;;;;1.90;1.77;;;16.30;99.90;;;;;;5113536;28;20843;-44
2022/05/31 09:10:02;;;;;;;2.30;2.00;;;16.30;99.90;;;;;;5113034;28;20474;-44
2022/05/31 09:12:38;;;;;;;2.93;1.70;;;16.30;99.90;;;;;;5113193;28;20497;-48
2022/05/31 09:15:10;;;;;;;2.17;1.97;;;16.30;99.90;;;;;;5113068;28;20997;-44
2022/05/31 09:17:57;;;;;;;2.90;1.70;;;16.40;99.90;;;;;;5113016;28;20786;-44
2022/05/31 09:20:32;;;;;;;1.63;1.37;;;16.20;99.90;;;;;;5112743;28;20502;-44
2022/05/31 09:23:00;;;;;;;2.07;1.70;;;16.30;99.90;;;;;;5113135;28;20530;-49
2022/05/31 09:25:28;;;;;;;2.90;1.50;;;16.30;99.90;;;;;;5112732;28;20804;-44
2022/05/31 09:27:55;;;;;;;2.73;2.00;;;16.50;99.90;;;;;;5113048;28;20523;-44
2022/05/31 09:30:26;;;;;;;2.07;1.87;;;16.60;99.90;;;;;;5111989;28;20474;-43
2022/05/31 09:33:15;;;;;;;2.30;2.10;;;16.70;99.90;;;;;;5112610;28;20534;-44
2022/05/31 09:35:58;;;;;;;2.60;1.70;;;16.80;99.90;;;;;;5112899;28;20517;-44
2022/05/31 09:38:57;;;;;;;2.13;1.60;;;17.00;99.90;;;;;;5112727;28;20537;-45
2022/05/31 09:41:29;;;;;;;1.83;1.70;;;17.00;99.90;;;;;;5111225;28;20491;-44
2022/05/31 09:44:07;;;;;;;2.20;2.00;;;17.00;99.90;;;;;;5108244;28;20467;-44
2022/05/31 09:46:39;;;;;;;3.20;2.13;;;17.10;99.90;;;;;;5088833;28;20432;-46
2022/05/31 09:49:16;;;;;;;2.17;1.97;;;17.10;99.90;;;;;;5090534;28;20467;-44
2022/05/31 09:51:45;;;;;;;2.00;1.87;;;17.20;99.90;;;;;;5091905;28;20520;-44
2022/05/31 09:57:10;;;;;;;2.33;1.70;;;17.20;99.90;;;;;;5091504;28;20434;-46
2022/05/31 09:59:45;;;;;;;2.90;2.10;;;17.20;99.90;;;;;;5091853;28;20467;-43
2022/05/31 10:02:29;;;;;;;2.00;1.50;;;17.30;99.90;;;;;;5091772;28;20439;-47
2022/05/31 10:05:16;;;;;;;3.93;2.07;;;17.40;99.90;;;;;;5091918;28;20439;-43
2022/05/31 10:07:46;;;;;;;2.00;1.80;;;17.70;99.90;;;;;;5091583;28;20503;-47
2022/05/31 10:10:16;;;;;;;2.07;1.87;;;17.90;99.90;;;;;;5091618;28;20475;-45
2022/05/31 10:12:51;;;;;;;3.00;2.07;;;18.10;99.90;;;;;;5091834;28;20443;-47
2022/05/31 10:15:40;;;;;;;3.40;1.43;;;18.30;99.90;;;;;;5091770;28;20466;-44
2022/05/31 10:18:09;;;;;;;5.53;2.23;;;18.20;99.90;;;;;;5091814;28;20483;-44
2022/05/31 10:20:37;;;;;;;2.00;1.60;;;18.20;99.90;;;;;;5091084;28;20506;-45
2022/05/31 10:23:11;;;;;;;3.00;1.67;;;18.30;99.90;;;;;;5091466;28;20523;-44
2022/05/31 10:25:42;;;;;;;2.67;2.00;;;18.40;99.90;;;;;;5090290;28;20462;-45
2022/05/31 10:28:15;;;;;;;2.87;2.03;;;18.40;99.90;;;;;;5087995;28;20519;-44
2022/05/31 10:30:42;;;;;;;3.70;1.97;;;18.40;99.90;;;;;;5089823;28;20475;-46
2022/05/31 10:33:13;;;;;;;2.10;1.90;;;18.30;99.90;;;;;;5091211;28;20541;-45
2022/05/31 10:35:43;;;;;;;2.30;1.87;;;18.40;99.90;;;;;;5090743;28;20475;-46
2022/05/31 10:38:29;;;;;;;1.97;1.77;;;18.50;99.90;;;;;;5091029;28;20500;-45
2022/05/31 10:41:00;;;;;;;2.10;1.80;;;18.60;99.90;;;;;;5088934;28;20479;-44
2022/05/31 10:43:36;;;;;;;2.00;1.70;;;18.70;99.90;;;;;;5094798;28;20454;-44
2022/05/31 10:46:11;;;;;;;4.53;3.60;;;18.80;99.90;;;;;;5095609;28;20470;-44
2022/05/31 10:48:46;;;;;;;2.63;1.93;;;18.90;99.90;;;;;;5095184;28;20805;-45
2022/05/31 10:51:21;;;;;;;2.10;1.90;;;18.90;99.90;;;;;;5095466;28;20478;-44
2022/05/31 10:54:01;;;;;;;2.77;1.90;;;18.90;99.90;;;;;;5095495;28;20439;-45
2022/05/31 10:56:37;;;;;;;2.20;1.80;;;19.10;99.90;;;;;;5095400;28;20867;-45
2022/05/31 10:59:06;;;;;;;2.70;1.90;;;19.00;99.90;;;;;;5094570;28;20530;-48
2022/05/31 11:01:49;;;;;;;2.73;1.50;;;19.10;99.90;;;;;;5095023;28;20463;-44
2022/05/31 11:04:34;;;;;;;1.90;1.43;;;19.30;99.90;;;;;;5093781;28;20447;-49
2022/05/31 11:07:15;;;;;;;2.07;1.87;;;19.40;99.90;;;;;;5095232;28;20443;-44
2022/05/31 11:12:48;;;;;;;1.90;1.63;;;19.50;99.90;;;;;;5095119;28;20430;-44
2022/05/31 11:15:27;;;;;;;2.30;1.73;;;19.50;99.90;;;;;;5095084;28;20443;-44
2022/05/31 11:18:24;;;;;;;1.83;1.60;;;19.60;99.90;;;;;;5095131;28;20438;-45
2022/05/31 11:20:58;;;;;;;3.47;1.70;;;19.50;99.90;;;;;;5094706;28;20452;-45
2022/05/31 11:23:49;;;;;;;2.83;1.80;;;19.70;99.90;;;;;;5094774;28;20514;-48
2022/05/31 11:26:46;;;;;;;3.13;1.90;;;19.70;99.90;;;;;;5095155;28;20852;-45
2022/05/31 11:29:48;;;;;;;2.90;1.70;;;19.70;99.90;;;;;;5094555;28;20465;-44
2022/05/31 11:32:26;;;;;;;2.93;1.60;;;19.70;99.90;;;;;;5069123;28;21111;-44
2022/05/31 11:35:03;;;;;;;3.13;2.00;;;19.80;99.90;;;;;;5094878;28;20471;-45
2022/05/31 11:37:51;;;;;;;1.93;1.63;;;19.90;99.90;;;;;;5094401;28;20789;-45
2022/05/31 11:40:35;;;;;;;2.07;1.70;;;19.90;99.90;;;;;;5094001;28;20562;-48
2022/05/31 11:43:34;;;;;;;1.93;1.83;;;19.90;99.90;;;;;;5094486;28;20471;-49
2022/05/31 11:46:09;;;;;;;3.40;3.10;;;20.00;99.90;;;;;;5066475;28;20486;-47
2022/05/31 11:48:57;;;;;;;1.70;1.60;;;19.90;99.90;;;;;;5094329;28;20868;-46
2022/05/31 11:51:53;;;;;;;1.83;1.50;;;19.90;99.90;;;;;;5094557;28;20518;-46
2022/05/31 11:54:44;;;;;;;1.60;1.43;;;19.90;99.90;;;;;;5073177;28;20534;-47
2022/05/31 11:57:28;;;;;;;3.17;1.63;;;19.90;99.90;;;;;;5094587;28;20471;-46
2022/05/31 12:00:02;;;;;;;2.63;1.90;;;19.90;99.90;;;;;;5093963;28;20463;-46
2022/05/31 12:02:35;;;;;;;2.30;1.60;;;20.00;99.90;;;;;;5094378;28;20436;-46
2022/05/31 12:05:15;;;;;;;3.13;1.57;;;20.10;99.90;;;;;;5092885;28;20436;-49
2022/05/31 12:07:49;;;;;;;3.03;2.00;;;20.10;99.90;;;;;;5092435;28;20863;-47
2022/05/31 12:10:19;;;;;;;3.07;1.93;;;20.10;99.90;;;;;;5092249;28;20466;-47
2022/05/31 12:12:47;;;;;;;2.43;1.50;;;20.00;99.90;;;;;;5092695;28;20567;-44
2022/05/31 12:15:20;;;;;;;2.27;2.00;;;19.90;99.90;;;;;;5092205;28;20950;-48
2022/05/31 12:17:52;;;;;;;2.43;1.80;;;19.90;99.90;;;;;;5092356;28;20451;-47
2022/05/31 12:20:25;;;;;;;2.27;1.67;;;19.90;99.90;;;;;;5098427;22;21077;-45
2022/05/31 12:23:00;;;;;;;1.87;1.43;;;20.00;99.90;;;;;;5053767;28;20464;-44
2022/05/31 12:25:31;;;;;;;2.70;1.67;;;20.10;99.90;;;;;;5053356;28;20523;-44
2022/05/31 12:28:08;;;;;;;2.07;1.87;;;20.00;99.90;;;;;;5053551;28;20439;-44
2022/05/31 12:30:45;;;;;;;2.93;1.80;;;19.90;99.90;;;;;;5053486;28;20496;-44
2022/05/31 12:33:37;;;;;;;1.97;1.87;;;19.90;99.90;;;;;;5053409;28;20441;-44
2022/05/31 12:36:04;;;;;;;2.17;1.97;;;19.90;99.90;;;;;;5053433;28;20442;-45
2022/05/31 12:38:56;;;;;;;1.63;1.53;;;20.00;99.90;;;;;;5053069;28;20528;-44
2022/05/31 12:41:38;;;;;;;2.20;1.90;;;20.10;99.90;;;;;;5052615;28;20822;-45
2022/05/31 12:44:11;;;;;;;1.93;1.63;;;20.00;99.90;;;;;;5052014;28;20445;-47
2022/05/31 12:46:45;;;;;;;2.20;1.80;;;20.00;99.90;;;;;;5052238;28;20524;-44
2022/05/31 12:49:21;;;;;;;1.90;1.70;;;20.10;99.90;;;;;;5051740;28;20862;-44
2022/05/31 12:55:03;;;;;;;2.40;1.80;;;20.00;99.90;;;;;;5034573;28;20800;-44
2022/05/31 13:00:28;;;;;;;1.40;1.30;;;20.10;99.90;;;;;;5050569;28;20449;-46
2022/05/31 13:02:56;;;;;;;2.13;1.60;;;20.10;99.90;;;;;;5051923;28;20922;-44
2022/05/31 13:05:40;;;;;;;2.20;1.73;;;20.10;99.90;;;;;;5050805;28;20441;-44
2022/05/31 13:08:43;;;;;;;2.20;2.00;;;20.10;99.90;;;;;;5061609;28;20448;-44
2022/05/31 13:19:41;;;;;;;2.57;2.37;;;20.50;99.90;;;;;;5055814;28;20417;-45
2022/05/31 13:22:12;;;;;;;2.60;2.40;;;20.60;99.90;;;;;;5051449;28;20468;-46
2022/05/31 13:24:45;;;;;;;3.87;1.60;;;20.60;99.90;;;;;;5051499;28;20488;-47
2022/05/31 13:27:17;;;;;;;2.40;1.50;;;20.90;99.90;;;;;;5054117;28;20445;-46
2022/05/31 13:29:44;;;;;;;6.43;1.97;;;21.00;99.90;;;;;;5051466;28;20480;-45
2022/05/31 13:32:12;;;;;;;2.03;1.83;;;21.00;99.90;;;;;;5051257;28;20564;-54
2022/05/31 13:34:43;;;;;;;1.70;1.60;;;21.10;99.90;;;;;;5050333;28;20445;-44
2022/05/31 13:37:17;;;;;;;1.80;1.47;;;21.20;99.90;;;;;;5050249;28;20468;-48
2022/05/31 13:39:46;;;;;;;2.73;1.67;;;21.10;99.90;;;;;;5049155;28;20478;-46
2022/05/31 13:42:22;;;;;;;1.80;1.70;;;21.20;99.90;;;;;;5049931;28;20532;-45
2022/05/31 13:44:50;;;;;;;1.57;1.20;;;21.10;98.30;;;;;;5049732;28;20441;-44
2022/05/31 13:47:19;;;;;;;1.70;1.30;;;21.10;96.60;;;;;;5049533;28;20437;-48
2022/05/31 13:49:49;;;;;;;1.43;1.20;;;21.10;99.50;;;;;;5049056;28;20437;-44